N789DL PAJN-CYXS
Flight info
| Callsign | N789DL |
|---|---|
| Flight time | 1h 40m |
| Altitude | 37000 |
| Route | ASORT3 ASORT DCT DUXAR |
| Aircraft | STAR/L-SDFGRWY/S |
Departure
| Time | 2026-05-04 22:50 |
|---|---|
| Airport | Juneau International Airport (PAJN) |
Arrival
| Time | 2026-05-05 00:31 |
|---|---|
| Airport | Prince George (International) Airport (CYXS) |
| Time | Latitude | Longitude | Altitude | Speed | Heading |
|---|---|---|---|---|---|
| 2026-05-04 22:33 | 58.35805 | -134.58064 | 30 ft | 0 kts | 15° |
| 2026-05-04 22:44 | 58.35805 | -134.58095 | 30 ft | 4 kts | 174° |
| 2026-05-04 22:44 | 58.35774 | -134.58053 | 30 ft | 12 kts | 141° |
| 2026-05-04 22:44 | 58.35700 | -134.57914 | 30 ft | 6 kts | 164° |
| 2026-05-04 22:45 | 58.35661 | -134.57917 | 30 ft | 7 kts | 172° |
| 2026-05-04 22:45 | 58.35607 | -134.57620 | 30 ft | 22 kts | 105° |
| 2026-05-04 22:45 | 58.35569 | -134.57352 | 30 ft | 20 kts | 105° |
| 2026-05-04 22:46 | 58.35546 | -134.57187 | 30 ft | 19 kts | 104° |
| 2026-05-04 22:46 | 58.35514 | -134.56957 | 30 ft | 17 kts | 105° |
| 2026-05-04 22:46 | 58.35484 | -134.56745 | 30 ft | 16 kts | 104° |
| 2026-05-04 22:46 | 58.35458 | -134.56548 | 29 ft | 15 kts | 104° |
| 2026-05-04 22:47 | 58.35431 | -134.56362 | 29 ft | 14 kts | 104° |
| 2026-05-04 22:47 | 58.35408 | -134.56187 | 29 ft | 13 kts | 106° |
| 2026-05-04 22:47 | 58.35381 | -134.55990 | 29 ft | 19 kts | 104° |
| 2026-05-04 22:47 | 58.35336 | -134.55692 | 29 ft | 25 kts | 104° |
| 2026-05-04 22:48 | 58.35297 | -134.55387 | 29 ft | 21 kts | 105° |
| 2026-05-04 22:48 | 58.35226 | -134.55302 | 29 ft | 12 kts | 195° |
| 2026-05-04 22:48 | 58.35182 | -134.55370 | 28 ft | 7 kts | 269° |
| 2026-05-04 22:48 | 58.35184 | -134.55400 | 27 ft | 0 kts | 284° |
| 2026-05-04 22:49 | 58.35189 | -134.55435 | 27 ft | 17 kts | 285° |
| 2026-05-04 22:49 | 58.35262 | -134.55953 | 27 ft | 62 kts | 285° |
| 2026-05-04 22:49 | 58.35411 | -134.57013 | 30 ft | 105 kts | 285° |
| 2026-05-04 22:50 | 58.35627 | -134.58523 | 220 ft | 128 kts | 282° |
| 2026-05-04 22:50 | 58.35893 | -134.60313 | 513 ft | 153 kts | 285° |
| 2026-05-04 22:50 | 58.36230 | -134.62415 | 987 ft | 171 kts | 288° |
| 2026-05-04 22:50 | 58.36544 | -134.64706 | 1393 ft | 190 kts | 285° |
| 2026-05-04 22:51 | 58.36787 | -134.67219 | 1886 ft | 201 kts | 278° |
| 2026-05-04 22:51 | 58.36901 | -134.69827 | 2632 ft | 194 kts | 274° |
| 2026-05-04 22:51 | 58.36942 | -134.72435 | 3220 ft | 200 kts | 270° |
| 2026-05-04 22:51 | 58.36915 | -134.75124 | 3792 ft | 205 kts | 267° |
| 2026-05-04 22:52 | 58.36779 | -134.77873 | 4351 ft | 209 kts | 262° |
| 2026-05-04 22:52 | 58.36586 | -134.80588 | 5118 ft | 204 kts | 261° |
| 2026-05-04 22:52 | 58.36404 | -134.83249 | 5833 ft | 202 kts | 262° |
| 2026-05-04 22:52 | 58.36249 | -134.85903 | 6570 ft | 201 kts | 264° |
| 2026-05-04 22:53 | 58.36125 | -134.88548 | 7271 ft | 200 kts | 264° |
| 2026-05-04 22:53 | 58.36016 | -134.91194 | 7999 ft | 200 kts | 265° |
| 2026-05-04 22:53 | 58.35912 | -134.93845 | 8736 ft | 201 kts | 265° |
| 2026-05-04 22:53 | 58.35824 | -134.96497 | 9499 ft | 201 kts | 268° |
| 2026-05-04 22:54 | 58.35750 | -134.99145 | 10221 ft | 201 kts | 253° |
| 2026-05-04 22:54 | 58.34966 | -135.01288 | 10900 ft | 201 kts | 217° |
| 2026-05-04 22:54 | 58.33640 | -135.02082 | 11605 ft | 205 kts | 181° |
| 2026-05-04 22:54 | 58.32293 | -135.01193 | 12317 ft | 212 kts | 147° |
| 2026-05-04 22:55 | 58.31397 | -134.98968 | 13010 ft | 219 kts | 120° |
| 2026-05-04 22:55 | 58.30775 | -134.96305 | 13723 ft | 222 kts | 116° |
| 2026-05-04 22:55 | 58.30202 | -134.93533 | 14410 ft | 223 kts | 115° |
| 2026-05-04 22:55 | 58.29664 | -134.90806 | 15024 ft | 224 kts | 115° |
| 2026-05-04 22:56 | 58.29125 | -134.88021 | 15681 ft | 225 kts | 115° |
| 2026-05-04 22:56 | 58.28510 | -134.85295 | 16353 ft | 224 kts | 122° |
| 2026-05-04 22:56 | 58.27808 | -134.82647 | 17061 ft | 225 kts | 122° |
| 2026-05-04 22:56 | 58.27152 | -134.79936 | 17839 ft | 226 kts | 121° |
| 2026-05-04 22:57 | 58.26490 | -134.77209 | 18575 ft | 227 kts | 123° |
| 2026-05-04 22:57 | 58.25805 | -134.74491 | 19216 ft | 229 kts | 123° |
| 2026-05-04 22:57 | 58.25122 | -134.71750 | 19872 ft | 231 kts | 123° |
| 2026-05-04 22:57 | 58.24439 | -134.68970 | 20513 ft | 233 kts | 123° |
| 2026-05-04 22:58 | 58.23736 | -134.66159 | 21122 ft | 238 kts | 124° |
| 2026-05-04 22:58 | 58.23021 | -134.63294 | 21739 ft | 242 kts | 124° |
| 2026-05-04 22:58 | 58.22296 | -134.60377 | 22355 ft | 247 kts | 124° |
| 2026-05-04 22:58 | 58.21556 | -134.57415 | 22971 ft | 250 kts | 124° |
| 2026-05-04 22:59 | 58.20805 | -134.54415 | 23607 ft | 253 kts | 124° |
| 2026-05-04 22:59 | 58.20053 | -134.51407 | 24225 ft | 251 kts | 125° |
| 2026-05-04 22:59 | 58.19307 | -134.48435 | 24839 ft | 249 kts | 125° |
| 2026-05-04 22:59 | 58.18576 | -134.45528 | 25444 ft | 246 kts | 125° |
| 2026-05-04 23:00 | 58.17842 | -134.42605 | 26042 ft | 246 kts | 125° |
| 2026-05-04 23:00 | 58.17105 | -134.39683 | 26609 ft | 246 kts | 125° |
| 2026-05-04 23:00 | 58.16368 | -134.36760 | 27176 ft | 246 kts | 125° |
| 2026-05-04 23:00 | 58.15631 | -134.33839 | 27710 ft | 246 kts | 125° |
| 2026-05-04 23:01 | 58.14889 | -134.30907 | 28211 ft | 246 kts | 125° |
| 2026-05-04 23:01 | 58.14145 | -134.27992 | 28704 ft | 246 kts | 125° |
| 2026-05-04 23:01 | 58.13411 | -134.25050 | 29187 ft | 247 kts | 124° |
| 2026-05-04 23:01 | 58.12664 | -134.22112 | 29696 ft | 247 kts | 126° |
| 2026-05-04 23:02 | 58.11909 | -134.19177 | 30172 ft | 248 kts | 125° |
| 2026-05-04 23:02 | 58.11164 | -134.16224 | 30584 ft | 248 kts | 125° |
| 2026-05-04 23:02 | 58.10414 | -134.13283 | 30925 ft | 249 kts | 125° |
| 2026-05-04 23:02 | 58.09648 | -134.10315 | 31225 ft | 253 kts | 124° |
| 2026-05-04 23:03 | 58.08892 | -134.07299 | 31560 ft | 254 kts | 124° |
| 2026-05-04 23:03 | 58.08117 | -134.04291 | 31920 ft | 254 kts | 124° |
| 2026-05-04 23:03 | 58.07342 | -134.01284 | 32265 ft | 254 kts | 124° |
| 2026-05-04 23:03 | 58.06576 | -133.98275 | 32611 ft | 255 kts | 124° |
| 2026-05-04 23:04 | 58.05807 | -133.95303 | 32881 ft | 255 kts | 124° |
| 2026-05-04 23:04 | 58.05038 | -133.92297 | 33224 ft | 254 kts | 124° |
| 2026-05-04 23:04 | 58.04264 | -133.89294 | 33523 ft | 255 kts | 124° |
| 2026-05-04 23:04 | 58.03481 | -133.86275 | 33836 ft | 257 kts | 124° |
| 2026-05-04 23:05 | 58.02710 | -133.83264 | 34172 ft | 254 kts | 124° |
| 2026-05-04 23:05 | 58.01935 | -133.80276 | 34430 ft | 253 kts | 124° |
| 2026-05-04 23:05 | 58.01153 | -133.77270 | 34602 ft | 257 kts | 124° |
| 2026-05-04 23:05 | 58.00366 | -133.74224 | 34799 ft | 259 kts | 124° |
| 2026-05-04 23:06 | 57.99575 | -133.71169 | 35048 ft | 258 kts | 125° |
| 2026-05-04 23:06 | 57.98783 | -133.68133 | 35270 ft | 258 kts | 126° |
| 2026-05-04 23:06 | 57.97987 | -133.65085 | 35473 ft | 260 kts | 126° |
| 2026-05-04 23:06 | 57.97189 | -133.62017 | 35666 ft | 262 kts | 126° |
| 2026-05-04 23:07 | 57.96384 | -133.58932 | 35818 ft | 263 kts | 126° |
| 2026-05-04 23:07 | 57.95571 | -133.55840 | 35905 ft | 265 kts | 125° |
| 2026-05-04 23:07 | 57.94755 | -133.52712 | 35991 ft | 266 kts | 125° |
| 2026-05-04 23:07 | 57.94054 | -133.49020 | 36752 ft | 290 kts | 99° |
| 2026-05-04 23:08 | 57.94003 | -133.45235 | 36698 ft | 291 kts | 93° |
| 2026-05-04 23:08 | 57.94034 | -133.42688 | 36683 ft | 292 kts | 92° |
| 2026-05-04 23:08 | 57.94110 | -133.38836 | 36578 ft | 297 kts | 91° |
| 2026-05-04 23:08 | 57.94047 | -133.35073 | 36882 ft | 281 kts | 103° |
| 2026-05-04 23:09 | 57.93652 | -133.31527 | 37032 ft | 273 kts | 116° |
| 2026-05-04 23:09 | 57.92915 | -133.28285 | 37097 ft | 266 kts | 130° |
| 2026-05-04 23:09 | 57.91878 | -133.25473 | 37127 ft | 258 kts | 143° |
| 2026-05-04 23:09 | 57.90582 | -133.23202 | 37141 ft | 255 kts | 153° |
| 2026-05-04 23:10 | 57.89320 | -133.20714 | 37128 ft | 272 kts | 138° |
| 2026-05-04 23:10 | 57.88312 | -133.17599 | 37142 ft | 287 kts | 125° |
| 2026-05-04 23:10 | 57.87518 | -133.14093 | 37147 ft | 296 kts | 120° |
| 2026-05-04 23:10 | 57.86755 | -133.10465 | 37169 ft | 301 kts | 120° |
| 2026-05-04 23:11 | 57.85145 | -133.03073 | 37181 ft | 309 kts | 121° |
| 2026-05-04 23:11 | 57.83377 | -132.95671 | 37169 ft | 310 kts | 127° |
| 2026-05-04 23:12 | 57.81335 | -132.88440 | 37175 ft | 318 kts | 125° |
| 2026-05-04 23:12 | 57.79259 | -132.81088 | 37184 ft | 322 kts | 125° |
| 2026-05-04 23:13 | 57.77182 | -132.73677 | 37184 ft | 324 kts | 126° |
| 2026-05-04 23:13 | 57.75076 | -132.66192 | 37185 ft | 327 kts | 126° |
| 2026-05-04 23:14 | 57.72945 | -132.58660 | 37179 ft | 328 kts | 126° |
| 2026-05-04 23:14 | 57.70797 | -132.51086 | 37178 ft | 330 kts | 126° |
| 2026-05-04 23:15 | 57.68639 | -132.43511 | 37166 ft | 331 kts | 125° |
| 2026-05-04 23:15 | 57.66472 | -132.35907 | 37165 ft | 333 kts | 125° |
| 2026-05-04 23:16 | 57.64274 | -132.28256 | 37162 ft | 336 kts | 124° |
| 2026-05-04 23:16 | 57.62060 | -132.20542 | 37162 ft | 338 kts | 124° |
| 2026-05-04 23:17 | 57.59824 | -132.12793 | 37162 ft | 341 kts | 124° |
| 2026-05-04 23:17 | 57.57591 | -132.05081 | 37161 ft | 339 kts | 125° |
| 2026-05-04 23:18 | 57.55354 | -131.97372 | 37150 ft | 338 kts | 125° |
| 2026-05-04 23:18 | 57.53109 | -131.89661 | 37145 ft | 338 kts | 125° |
| 2026-05-04 23:19 | 57.50862 | -131.81982 | 37147 ft | 338 kts | 125° |
| 2026-05-04 23:19 | 57.48605 | -131.74288 | 37139 ft | 339 kts | 125° |
| 2026-05-04 23:20 | 57.46334 | -131.66566 | 37137 ft | 341 kts | 125° |
| 2026-05-04 23:20 | 57.44051 | -131.58832 | 37129 ft | 341 kts | 125° |
| 2026-05-04 23:21 | 57.41761 | -131.51107 | 37127 ft | 342 kts | 125° |
| 2026-05-04 23:21 | 57.39470 | -131.43397 | 37125 ft | 340 kts | 125° |
| 2026-05-04 23:22 | 57.37187 | -131.35742 | 37120 ft | 339 kts | 124° |
| 2026-05-04 23:22 | 57.34902 | -131.28107 | 37125 ft | 340 kts | 124° |
| 2026-05-04 23:23 | 57.32613 | -131.20461 | 37126 ft | 339 kts | 125° |
| 2026-05-04 23:23 | 57.30318 | -131.12838 | 37125 ft | 338 kts | 125° |
| 2026-05-04 23:24 | 57.28045 | -131.05330 | 37120 ft | 335 kts | 124° |
| 2026-05-04 23:24 | 57.25768 | -130.97836 | 37115 ft | 335 kts | 125° |
| 2026-05-04 23:25 | 57.23508 | -130.90384 | 37126 ft | 332 kts | 126° |
| 2026-05-04 23:25 | 57.21232 | -130.82907 | 37110 ft | 336 kts | 125° |
| 2026-05-04 23:26 | 57.18926 | -130.75381 | 37102 ft | 337 kts | 124° |
| 2026-05-04 23:26 | 57.16616 | -130.67858 | 37101 ft | 339 kts | 125° |
| 2026-05-04 23:27 | 57.14301 | -130.60337 | 37105 ft | 339 kts | 125° |
| 2026-05-04 23:27 | 57.11987 | -130.52836 | 37099 ft | 334 kts | 125° |
| 2026-05-04 23:28 | 57.09661 | -130.45336 | 37097 ft | 339 kts | 124° |
| 2026-05-04 23:28 | 57.07317 | -130.37802 | 37089 ft | 340 kts | 125° |
| 2026-05-04 23:29 | 57.04967 | -130.30261 | 37081 ft | 341 kts | 124° |
| 2026-05-04 23:29 | 57.02596 | -130.22685 | 37083 ft | 344 kts | 124° |
| 2026-05-04 23:30 | 57.00201 | -130.15056 | 37082 ft | 346 kts | 124° |
| 2026-05-04 23:30 | 56.97798 | -130.07425 | 37081 ft | 348 kts | 124° |
| 2026-05-04 23:31 | 56.95368 | -129.99725 | 37088 ft | 350 kts | 124° |
| 2026-05-04 23:31 | 56.92920 | -129.92000 | 37077 ft | 351 kts | 124° |
| 2026-05-04 23:32 | 56.90462 | -129.84285 | 37071 ft | 350 kts | 124° |
| 2026-05-04 23:32 | 56.88010 | -129.76598 | 37070 ft | 349 kts | 124° |
| 2026-05-04 23:33 | 56.85558 | -129.68931 | 37068 ft | 350 kts | 124° |
| 2026-05-04 23:33 | 56.83103 | -129.61279 | 37070 ft | 348 kts | 124° |
| 2026-05-04 23:34 | 56.80640 | -129.53638 | 37055 ft | 348 kts | 124° |
| 2026-05-04 23:34 | 56.78243 | -129.46103 | 37070 ft | 346 kts | 123° |
| 2026-05-04 23:35 | 56.75619 | -129.38795 | 37068 ft | 344 kts | 130° |
| 2026-05-04 23:35 | 56.72949 | -129.31549 | 37061 ft | 345 kts | 129° |
| 2026-05-04 23:36 | 56.70240 | -129.24291 | 37056 ft | 347 kts | 128° |
| 2026-05-04 23:36 | 56.67517 | -129.17029 | 37051 ft | 347 kts | 128° |
| 2026-05-04 23:37 | 56.64794 | -129.09801 | 37050 ft | 346 kts | 128° |
| 2026-05-04 23:37 | 56.62071 | -129.02577 | 37056 ft | 348 kts | 128° |
| 2026-05-04 23:38 | 56.59321 | -128.95299 | 37041 ft | 350 kts | 129° |
| 2026-05-04 23:38 | 56.56555 | -128.88007 | 37041 ft | 352 kts | 128° |
| 2026-05-04 23:39 | 56.53778 | -128.80709 | 37036 ft | 351 kts | 128° |
| 2026-05-04 23:39 | 56.51009 | -128.73448 | 37041 ft | 350 kts | 128° |
| 2026-05-04 23:40 | 56.48232 | -128.66192 | 37040 ft | 351 kts | 128° |
| 2026-05-04 23:40 | 56.45441 | -128.58922 | 37042 ft | 351 kts | 128° |
| 2026-05-04 23:41 | 56.42668 | -128.51723 | 37047 ft | 351 kts | 128° |
| 2026-05-04 23:41 | 56.39877 | -128.44491 | 37052 ft | 351 kts | 127° |
| 2026-05-04 23:42 | 56.37071 | -128.37247 | 37052 ft | 353 kts | 127° |
| 2026-05-04 23:42 | 56.34251 | -128.29988 | 37054 ft | 353 kts | 127° |
| 2026-05-04 23:43 | 56.31423 | -128.22730 | 37055 ft | 354 kts | 127° |
| 2026-05-04 23:43 | 56.28590 | -128.15479 | 37057 ft | 354 kts | 128° |
| 2026-05-04 23:44 | 56.25752 | -128.08239 | 37052 ft | 355 kts | 128° |
| 2026-05-04 23:44 | 56.22919 | -128.01038 | 37055 ft | 355 kts | 127° |
| 2026-05-04 23:45 | 56.20055 | -127.93765 | 37054 ft | 357 kts | 127° |
| 2026-05-04 23:45 | 56.17199 | -127.86544 | 37057 ft | 354 kts | 127° |
| 2026-05-04 23:46 | 56.14342 | -127.79345 | 37057 ft | 355 kts | 127° |
| 2026-05-04 23:46 | 56.11484 | -127.72155 | 37055 ft | 354 kts | 127° |
| 2026-05-04 23:47 | 56.08619 | -127.64980 | 37053 ft | 355 kts | 127° |
| 2026-05-04 23:47 | 56.05745 | -127.57796 | 37060 ft | 355 kts | 127° |
| 2026-05-04 23:48 | 56.02850 | -127.50567 | 37056 ft | 358 kts | 127° |
| 2026-05-04 23:48 | 55.99943 | -127.43364 | 37057 ft | 357 kts | 127° |
| 2026-05-04 23:49 | 55.97058 | -127.36219 | 37058 ft | 357 kts | 127° |
| 2026-05-04 23:49 | 55.94151 | -127.29034 | 37060 ft | 357 kts | 127° |
| 2026-05-04 23:50 | 55.91226 | -127.21827 | 37055 ft | 360 kts | 127° |
| 2026-05-04 23:50 | 55.88276 | -127.14590 | 37051 ft | 360 kts | 127° |
| 2026-05-04 23:51 | 55.85341 | -127.07407 | 37055 ft | 357 kts | 127° |
| 2026-05-04 23:51 | 55.82452 | -127.00270 | 37049 ft | 354 kts | 134° |
| 2026-05-04 23:52 | 55.79084 | -126.93881 | 37053 ft | 354 kts | 135° |
| 2026-05-04 23:52 | 55.75959 | -126.87083 | 37045 ft | 355 kts | 133° |
| 2026-05-04 23:53 | 55.73331 | -126.81480 | 37041 ft | 355 kts | 131° |
| 2026-05-04 23:53 | 55.70157 | -126.74747 | 37042 ft | 356 kts | 131° |
| 2026-05-04 23:54 | 55.66984 | -126.68002 | 37042 ft | 357 kts | 131° |
| 2026-05-04 23:54 | 55.63797 | -126.61246 | 37044 ft | 358 kts | 131° |
| 2026-05-04 23:55 | 55.60596 | -126.54482 | 37038 ft | 358 kts | 131° |
| 2026-05-04 23:56 | 55.55785 | -126.44354 | 37038 ft | 359 kts | 131° |
| 2026-05-04 23:56 | 55.52575 | -126.37615 | 37034 ft | 358 kts | 132° |
| 2026-05-04 23:57 | 55.49394 | -126.30953 | 37033 ft | 357 kts | 131° |
| 2026-05-04 23:57 | 55.46179 | -126.24251 | 37026 ft | 358 kts | 131° |
| 2026-05-04 23:58 | 55.42959 | -126.17550 | 37028 ft | 359 kts | 131° |
| 2026-05-04 23:58 | 55.39728 | -126.10839 | 37045 ft | 360 kts | 131° |
| 2026-05-04 23:59 | 55.36479 | -126.04114 | 37034 ft | 361 kts | 131° |
| 2026-05-04 23:59 | 55.33220 | -125.97381 | 37031 ft | 362 kts | 131° |
| 2026-05-05 00:00 | 55.29949 | -125.90650 | 37028 ft | 363 kts | 130° |
| 2026-05-05 00:00 | 55.26663 | -125.83913 | 37029 ft | 363 kts | 131° |
| 2026-05-05 00:01 | 55.23397 | -125.77231 | 37026 ft | 362 kts | 130° |
| 2026-05-05 00:01 | 55.20136 | -125.70565 | 37028 ft | 361 kts | 131° |
| 2026-05-05 00:02 | 55.16855 | -125.63891 | 37026 ft | 362 kts | 130° |
| 2026-05-05 00:02 | 55.13563 | -125.57209 | 37029 ft | 362 kts | 131° |
| 2026-05-05 00:03 | 55.10270 | -125.50538 | 37028 ft | 363 kts | 130° |
| 2026-05-05 00:03 | 55.06959 | -125.43855 | 37023 ft | 364 kts | 130° |
| 2026-05-05 00:03 | 55.05296 | -125.40508 | 36833 ft | 370 kts | 130° |
| 2026-05-05 00:04 | 55.03580 | -125.37054 | 36368 ft | 384 kts | 130° |
| 2026-05-05 00:04 | 55.01804 | -125.33486 | 35913 ft | 394 kts | 130° |
| 2026-05-05 00:04 | 54.99991 | -125.29849 | 35463 ft | 401 kts | 130° |
| 2026-05-05 00:04 | 54.98150 | -125.26162 | 35023 ft | 406 kts | 130° |
| 2026-05-05 00:05 | 54.96291 | -125.22445 | 34592 ft | 408 kts | 130° |
| 2026-05-05 00:05 | 54.94425 | -125.18718 | 34160 ft | 407 kts | 130° |
| 2026-05-05 00:05 | 54.92568 | -125.15017 | 33694 ft | 406 kts | 129° |
| 2026-05-05 00:05 | 54.90713 | -125.11319 | 33213 ft | 405 kts | 130° |
| 2026-05-05 00:06 | 54.88856 | -125.07633 | 32739 ft | 405 kts | 130° |
| 2026-05-05 00:06 | 54.87003 | -125.03954 | 32273 ft | 404 kts | 130° |
| 2026-05-05 00:06 | 54.85153 | -125.00288 | 31817 ft | 403 kts | 130° |
| 2026-05-05 00:06 | 54.83303 | -124.96628 | 31361 ft | 403 kts | 130° |
| 2026-05-05 00:07 | 54.81451 | -124.92969 | 30896 ft | 403 kts | 130° |
| 2026-05-05 00:07 | 54.79619 | -124.89355 | 30466 ft | 403 kts | 130° |
| 2026-05-05 00:07 | 54.77770 | -124.85713 | 30029 ft | 402 kts | 130° |
| 2026-05-05 00:07 | 54.75923 | -124.82080 | 29525 ft | 402 kts | 130° |
| 2026-05-05 00:08 | 54.74071 | -124.78446 | 29034 ft | 402 kts | 129° |
| 2026-05-05 00:08 | 54.72223 | -124.74817 | 28545 ft | 401 kts | 129° |
| 2026-05-05 00:08 | 54.70376 | -124.71204 | 28068 ft | 401 kts | 129° |
| 2026-05-05 00:08 | 54.68523 | -124.67580 | 27596 ft | 401 kts | 129° |
| 2026-05-05 00:09 | 54.66674 | -124.63973 | 27135 ft | 401 kts | 129° |
| 2026-05-05 00:09 | 54.64825 | -124.60368 | 26680 ft | 400 kts | 129° |
| 2026-05-05 00:09 | 54.62978 | -124.56773 | 26238 ft | 400 kts | 129° |
| 2026-05-05 00:09 | 54.61132 | -124.53186 | 25797 ft | 399 kts | 129° |
| 2026-05-05 00:10 | 54.59292 | -124.49614 | 25379 ft | 398 kts | 129° |
| 2026-05-05 00:10 | 54.57454 | -124.46053 | 24947 ft | 397 kts | 129° |
| 2026-05-05 00:10 | 54.55617 | -124.42504 | 24534 ft | 396 kts | 128° |
| 2026-05-05 00:10 | 54.53788 | -124.38963 | 24121 ft | 396 kts | 128° |
| 2026-05-05 00:11 | 54.51954 | -124.35429 | 23713 ft | 395 kts | 128° |
| 2026-05-05 00:11 | 54.50128 | -124.31909 | 23246 ft | 394 kts | 128° |
| 2026-05-05 00:11 | 54.48306 | -124.28404 | 22762 ft | 392 kts | 129° |
| 2026-05-05 00:11 | 54.46490 | -124.24918 | 22288 ft | 390 kts | 129° |
| 2026-05-05 00:12 | 54.44706 | -124.21495 | 21829 ft | 388 kts | 129° |
| 2026-05-05 00:12 | 54.42908 | -124.18050 | 21368 ft | 387 kts | 129° |
| 2026-05-05 00:12 | 54.41116 | -124.14624 | 20920 ft | 384 kts | 129° |
| 2026-05-05 00:12 | 54.39333 | -124.11217 | 20476 ft | 383 kts | 129° |
| 2026-05-05 00:13 | 54.37557 | -124.07832 | 20041 ft | 381 kts | 129° |
| 2026-05-05 00:13 | 54.35791 | -124.04468 | 19608 ft | 379 kts | 129° |
| 2026-05-05 00:13 | 54.34032 | -124.01121 | 19177 ft | 377 kts | 129° |
| 2026-05-05 00:13 | 54.32281 | -123.97797 | 18761 ft | 375 kts | 129° |
| 2026-05-05 00:14 | 54.30537 | -123.94488 | 18404 ft | 371 kts | 129° |
| 2026-05-05 00:14 | 54.28826 | -123.91250 | 18209 ft | 362 kts | 129° |
| 2026-05-05 00:14 | 54.27159 | -123.88094 | 18115 ft | 353 kts | 129° |
| 2026-05-05 00:14 | 54.25531 | -123.85020 | 18072 ft | 344 kts | 129° |
| 2026-05-05 00:15 | 54.23936 | -123.82010 | 18053 ft | 338 kts | 129° |
| 2026-05-05 00:15 | 54.22366 | -123.79049 | 18045 ft | 335 kts | 129° |
| 2026-05-05 00:15 | 54.20793 | -123.76089 | 18024 ft | 337 kts | 129° |
| 2026-05-05 00:15 | 54.19214 | -123.73121 | 18014 ft | 338 kts | 129° |
| 2026-05-05 00:16 | 54.17615 | -123.70115 | 17637 ft | 348 kts | 129° |
| 2026-05-05 00:16 | 54.15984 | -123.67058 | 17201 ft | 355 kts | 130° |
| 2026-05-05 00:16 | 54.14312 | -123.63932 | 16770 ft | 358 kts | 130° |
| 2026-05-05 00:16 | 54.12633 | -123.60785 | 16340 ft | 359 kts | 130° |
| 2026-05-05 00:17 | 54.10951 | -123.57648 | 15916 ft | 358 kts | 130° |
| 2026-05-05 00:17 | 54.09275 | -123.54521 | 15497 ft | 356 kts | 130° |
| 2026-05-05 00:17 | 54.07610 | -123.51415 | 15084 ft | 354 kts | 131° |
| 2026-05-05 00:17 | 54.05957 | -123.48344 | 14684 ft | 348 kts | 131° |
| 2026-05-05 00:18 | 54.04337 | -123.45330 | 14303 ft | 341 kts | 131° |
| 2026-05-05 00:18 | 54.02746 | -123.42377 | 13949 ft | 336 kts | 131° |
| 2026-05-05 00:18 | 54.01176 | -123.39467 | 13563 ft | 332 kts | 131° |
| 2026-05-05 00:18 | 53.99622 | -123.36590 | 13167 ft | 328 kts | 131° |
| 2026-05-05 00:19 | 53.98084 | -123.33746 | 12777 ft | 325 kts | 131° |
| 2026-05-05 00:19 | 53.96562 | -123.30932 | 12392 ft | 322 kts | 131° |
| 2026-05-05 00:19 | 53.95051 | -123.28146 | 12015 ft | 319 kts | 131° |
| 2026-05-05 00:19 | 53.93553 | -123.25383 | 11640 ft | 317 kts | 131° |
| 2026-05-05 00:20 | 53.92067 | -123.22648 | 11268 ft | 314 kts | 131° |
| 2026-05-05 00:20 | 53.90594 | -123.19939 | 10902 ft | 307 kts | 131° |
| 2026-05-05 00:20 | 53.89191 | -123.17366 | 10537 ft | 288 kts | 131° |
| 2026-05-05 00:20 | 53.87859 | -123.14917 | 10181 ft | 278 kts | 131° |
| 2026-05-05 00:21 | 53.86559 | -123.12533 | 9812 ft | 273 kts | 131° |
| 2026-05-05 00:21 | 53.85279 | -123.10194 | 9424 ft | 270 kts | 131° |
| 2026-05-05 00:21 | 53.84012 | -123.07867 | 9028 ft | 268 kts | 131° |
| 2026-05-05 00:21 | 53.82751 | -123.05563 | 8642 ft | 266 kts | 131° |
| 2026-05-05 00:22 | 53.81505 | -123.03300 | 8263 ft | 265 kts | 131° |
| 2026-05-05 00:22 | 53.80255 | -123.01001 | 7893 ft | 264 kts | 131° |
| 2026-05-05 00:22 | 53.79001 | -122.98733 | 7519 ft | 264 kts | 131° |
| 2026-05-05 00:22 | 53.77757 | -122.96462 | 7145 ft | 262 kts | 130° |
| 2026-05-05 00:23 | 53.76521 | -122.94206 | 6843 ft | 259 kts | 131° |
| 2026-05-05 00:23 | 53.75301 | -122.92005 | 6605 ft | 255 kts | 130° |
| 2026-05-05 00:23 | 53.74109 | -122.89821 | 6358 ft | 252 kts | 131° |
| 2026-05-05 00:23 | 53.72922 | -122.87671 | 6179 ft | 247 kts | 131° |
| 2026-05-05 00:24 | 53.71760 | -122.85579 | 6050 ft | 242 kts | 130° |
| 2026-05-05 00:24 | 53.70629 | -122.83509 | 5925 ft | 238 kts | 131° |
| 2026-05-05 00:24 | 53.69500 | -122.81473 | 5800 ft | 237 kts | 131° |
| 2026-05-05 00:24 | 53.68383 | -122.79453 | 5661 ft | 233 kts | 127° |
| 2026-05-05 00:25 | 53.67722 | -122.77060 | 5533 ft | 224 kts | 96° |
| 2026-05-05 00:25 | 53.67766 | -122.74485 | 5407 ft | 218 kts | 79° |
| 2026-05-05 00:25 | 53.68048 | -122.72027 | 5284 ft | 208 kts | 75° |
| 2026-05-05 00:25 | 53.68320 | -122.69688 | 5159 ft | 199 kts | 78° |
| 2026-05-05 00:26 | 53.68519 | -122.67439 | 5106 ft | 187 kts | 79° |
| 2026-05-05 00:26 | 53.68718 | -122.65333 | 5155 ft | 177 kts | 78° |
| 2026-05-05 00:26 | 53.68938 | -122.63320 | 5205 ft | 171 kts | 73° |
| 2026-05-05 00:26 | 53.69618 | -122.61770 | 5199 ft | 167 kts | 30° |
| 2026-05-05 00:27 | 53.70744 | -122.61464 | 5199 ft | 169 kts | 355° |
| 2026-05-05 00:27 | 53.71895 | -122.61810 | 5205 ft | 171 kts | 351° |
| 2026-05-05 00:27 | 53.73105 | -122.62266 | 4946 ft | 186 kts | 349° |
| 2026-05-05 00:27 | 53.74408 | -122.62762 | 4643 ft | 197 kts | 351° |
| 2026-05-05 00:28 | 53.75775 | -122.63112 | 4334 ft | 198 kts | 354° |
| 2026-05-05 00:28 | 53.77121 | -122.63457 | 4066 ft | 192 kts | 352° |
| 2026-05-05 00:28 | 53.78315 | -122.63827 | 3920 ft | 158 kts | 352° |
| 2026-05-05 00:28 | 53.79352 | -122.64111 | 3748 ft | 149 kts | 352° |
| 2026-05-05 00:29 | 53.80365 | -122.64420 | 3454 ft | 148 kts | 351° |
| 2026-05-05 00:29 | 53.81371 | -122.64792 | 3091 ft | 147 kts | 351° |
| 2026-05-05 00:29 | 53.82351 | -122.65038 | 2896 ft | 136 kts | 353° |
| 2026-05-05 00:29 | 53.83252 | -122.65235 | 2747 ft | 128 kts | 352° |
| 2026-05-05 00:30 | 53.84097 | -122.65483 | 2628 ft | 120 kts | 349° |
| 2026-05-05 00:30 | 53.84932 | -122.65701 | 2553 ft | 125 kts | 352° |
| 2026-05-05 00:30 | 53.85785 | -122.65913 | 2489 ft | 119 kts | 349° |
| 2026-05-05 00:30 | 53.86543 | -122.66126 | 2338 ft | 102 kts | 350° |
| 2026-05-05 00:31 | 53.87184 | -122.66300 | 2237 ft | 85 kts | 349° |
| 2026-05-05 00:31 | 53.87624 | -122.66432 | 2239 ft | 36 kts | 352° |
| 2026-05-05 00:31 | 53.87774 | -122.66474 | 2240 ft | 14 kts | 350° |
| 2026-05-05 00:31 | 53.87894 | -122.66510 | 2240 ft | 23 kts | 350° |
| 2026-05-05 00:32 | 53.88064 | -122.66556 | 2240 ft | 27 kts | 349° |
| 2026-05-05 00:32 | 53.88213 | -122.66598 | 2240 ft | 14 kts | 351° |
| 2026-05-05 00:32 | 53.88264 | -122.66612 | 2241 ft | 8 kts | 351° |
| 2026-05-05 00:32 | 53.88361 | -122.66640 | 2241 ft | 18 kts | 352° |
| 2026-05-05 00:33 | 53.88475 | -122.66672 | 2241 ft | 15 kts | 350° |
| 2026-05-05 00:33 | 53.88591 | -122.66704 | 2241 ft | 15 kts | 352° |
| 2026-05-05 00:33 | 53.88651 | -122.66729 | 2241 ft | 5 kts | 323° |
| 2026-05-05 00:33 | 53.88656 | -122.66824 | 2241 ft | 10 kts | 261° |
| 2026-05-05 00:34 | 53.88645 | -122.66946 | 2241 ft | 10 kts | 262° |
| 2026-05-05 00:34 | 53.88634 | -122.67054 | 2242 ft | 12 kts | 260° |
| 2026-05-05 00:34 | 53.88614 | -122.67255 | 2242 ft | 16 kts | 261° |
| 2026-05-05 00:34 | 53.88603 | -122.67374 | 2242 ft | 9 kts | 262° |
| 2026-05-05 00:35 | 53.88564 | -122.67507 | 2243 ft | 17 kts | 214° |
| 2026-05-05 00:35 | 53.88461 | -122.67603 | 2244 ft | 18 kts | 195° |
| 2026-05-05 00:35 | 53.88363 | -122.67726 | 2244 ft | 17 kts | 210° |
| 2026-05-05 00:35 | 53.88287 | -122.67795 | 2244 ft | 9 kts | 188° |
| 2026-05-05 00:36 | 53.88309 | -122.67745 | 2244 ft | 7 kts | 24° |
| 2026-05-05 00:36 | 53.88333 | -122.67721 | 2244 ft | 0 kts | 35° |
| 2026-05-05 00:36 | 53.88330 | -122.67723 | 2244 ft | 1 kts | 17° |
| 2026-05-05 00:37 | 53.88303 | -122.67741 | 2244 ft | 7 kts | 30° |
| 2026-05-05 00:37 | 53.88317 | -122.67726 | 2244 ft | 6 kts | 31° |
| 2026-05-05 00:37 | 53.88329 | -122.67714 | 2244 ft | 0 kts | 32° |